Terminal Aerodrome Forecast
Issued by NWS

Home | Current Version | Previous Version | Text Only | Print | Product List | Glossary On
Versions: 1 2 3 4 5 6 7 8 9 10 11 12 13 14 15 16 17 18
673
FTUS44 KLZK 220520
TAFPBF
TAF
KPBF 220520Z 2206/2306 VRB03KT 3SM BR SCT003 OVC010
      TEMPO 2206/2210 1SM BR BKN002
     FM221600 02003KT P6SM SCT002 BKN012
     FM221900 04003KT P6SM FEW250
     FM230000 16003KT P6SM FEW250=

USA.gov is the U.S. government's official web portal to all federal, state and local government web resources and services.